Time;durP1;ratioP1;P1;durP2;ratioP2;P2;SDS_P1;SDS_P2;PMS_P1;PMS_P2;Temp;Humidity;BMP_temperature;BMP_pressure;BME280_temperature;BME280_humidity;BME280_pressure;Samples;Min_cycle;Max_cycle;Signal;HPM_P1;HPM_P2
2021/05/06 00:30:15;;;;;;;13.50;2.38;;;4.40;99.90;;;;;;12194926;29;20060;-78
2021/05/06 00:36:16;;;;;;;8.35;2.10;;;4.40;99.90;;;;;;12211007;28;20525;-78
2021/05/06 00:42:35;;;;;;;13.15;2.03;;;4.50;99.90;;;;;;12198644;28;20573;-78
2021/05/06 01:13:47;;;;;;;8.70;1.95;;;4.20;99.90;;;;;;12200869;28;20048;-78
2021/05/06 01:19:49;;;;;;;5.18;1.65;;;4.10;99.90;;;;;;12202373;28;20056;-78
2021/05/06 01:25:54;;;;;;;8.18;1.98;;;4.10;99.90;;;;;;12203452;28;20048;-78
2021/05/06 01:32:23;;;;;;;8.38;2.20;;;4.10;99.90;;;;;;12203260;28;20089;-78
2021/05/06 02:03:53;;;;;;;6.90;2.55;;;4.30;99.90;;;;;;12343592;28;20046;-78
2021/05/06 02:09:54;;;;;;;13.70;3.15;;;4.30;99.90;;;;;;12223663;28;20079;-78
2021/05/06 02:15:58;;;;;;;9.13;3.25;;;4.40;99.90;;;;;;12214208;28;20146;-78
2021/05/06 02:22:02;;;;;;;13.88;4.07;;;4.50;99.90;;;;;;12216037;28;20044;-78
2021/05/06 02:28:03;;;;;;;12.05;4.65;;;4.50;99.90;;;;;;12229850;28;20082;-78
2021/05/06 02:34:04;;;;;;;15.80;5.05;;;4.50;99.90;;;;;;12224817;28;20114;-77
2021/05/06 02:40:08;;;;;;;13.18;5.88;;;4.50;99.90;;;;;;12226172;28;20043;-78
2021/05/06 02:46:09;;;;;;;12.05;5.03;;;4.60;99.90;;;;;;12207357;28;20121;-77
2021/05/06 02:52:17;;;;;;;11.23;6.20;;;4.60;99.90;;;;;;12215761;28;20067;-78
2021/05/06 02:58:42;;;;;;;13.45;5.63;;;4.50;99.90;;;;;;12221044;28;20052;-78
2021/05/06 03:04:42;;;;;;;12.75;5.55;;;4.50;99.90;;;;;;12204140;28;20109;-78
2021/05/06 03:23:25;;;;;;;15.73;6.68;;;4.50;99.90;;;;;;12202383;28;20095;-78
2021/05/06 03:29:36;;;;;;;16.15;7.70;;;4.60;99.90;;;;;;12212669;28;20117;-78
2021/05/06 03:41:46;;;;;;;14.27;7.40;;;4.40;99.90;;;;;;12208257;28;20090;-78
2021/05/06 03:48:29;;;;;;;14.25;7.80;;;4.60;99.90;;;;;;12212978;28;20085;-78
2021/05/06 04:14:20;;;;;;;13.35;8.63;;;4.00;99.90;;;;;;12202257;28;20043;-78
2021/05/06 04:26:11;;;;;;;12.48;9.52;;;4.00;99.90;;;;;;12198672;28;20048;-77
2021/05/06 04:38:26;;;;;;;15.05;10.95;;;3.80;99.90;;;;;;12197467;28;20063;-77
2021/05/06 05:27:56;;;;;;;12.93;9.98;;;3.70;99.90;;;;;;12200828;28;20076;-78
2021/05/06 05:34:06;;;;;;;14.13;10.48;;;3.50;99.90;;;;;;12197074;28;20127;-79
2021/05/06 05:40:14;;;;;;;11.95;9.60;;;3.20;99.90;;;;;;12201496;28;20044;-80
2021/05/06 05:58:55;;;;;;;13.82;10.02;;;2.60;99.90;;;;;;12199314;28;20097;-80
2021/05/06 06:04:56;;;;;;;13.45;10.13;;;2.60;99.90;;;;;;12204581;28;20127;-78
2021/05/06 06:10:58;;;;;;;13.32;10.93;;;2.60;99.90;;;;;;12204174;28;20056;-78
2021/05/06 06:16:59;;;;;;;14.35;10.82;;;2.60;99.90;;;;;;12285577;28;20484;-78
2021/05/06 06:23:00;;;;;;;17.10;11.80;;;2.60;99.90;;;;;;12209643;28;20051;-78
2021/05/06 06:29:15;;;;;;;14.95;11.32;;;2.60;99.90;;;;;;12215755;28;20131;-78
2021/05/06 06:35:17;;;;;;;;;;;2.70;99.90;;;;;;12205790;28;20079;-78
2021/05/06 06:41:18;;;;;;;12.27;9.40;;;2.80;99.90;;;;;;12220518;28;20018;-79
2021/05/06 06:47:19;;;;;;;13.30;10.48;;;2.90;99.90;;;;;;12206908;28;20146;-78
2021/05/06 06:53:22;;;;;;;13.35;10.65;;;3.10;99.90;;;;;;12218954;28;20545;-78
2021/05/06 06:59:23;;;;;;;12.27;10.07;;;3.30;99.90;;;;;;12218623;28;20086;-78
2021/05/06 07:05:24;;;;;;;12.65;10.38;;;3.40;99.90;;;;;;12209124;28;20143;-78
2021/05/06 07:11:26;;;;;;;13.32;10.77;;;3.60;99.90;;;;;;12213840;28;20154;-78
2021/05/06 07:17:27;;;;;;;12.65;9.82;;;3.80;99.90;;;;;;12209513;28;20142;-78
2021/05/06 07:23:31;;;;;;;12.15;9.70;;;4.10;99.90;;;;;;12205554;28;20385;-78
2021/05/06 07:29:35;;;;;;;11.82;9.90;;;4.30;99.90;;;;;;12214196;28;20142;-79
2021/05/06 07:35:40;;;;;;;12.98;9.57;;;4.60;99.90;;;;;;12218356;28;20062;-78
2021/05/06 07:41:44;;;;;;;8.68;7.00;;;4.70;99.90;;;;;;12212858;28;20056;-79
2021/05/06 07:47:47;;;;;;;9.85;8.43;;;5.20;99.90;;;;;;12201858;28;20040;-79
2021/05/06 07:53:54;;;;;;;11.27;9.60;;;5.40;99.90;;;;;;12207919;28;20408;-78
2021/05/06 08:00:00;;;;;;;12.35;10.63;;;5.90;99.90;;;;;;12205980;28;20712;-79
2021/05/06 08:06:01;;;;;;;12.23;10.18;;;6.00;99.90;;;;;;12229912;28;20601;-78
2021/05/06 08:12:04;;;;;;;9.52;8.13;;;6.60;99.90;;;;;;12217397;28;20473;-79
2021/05/06 08:18:06;;;;;;;10.38;8.30;;;6.70;99.90;;;;;;12205760;28;20373;-78
2021/05/06 08:24:08;;;;;;;8.77;7.55;;;6.60;99.90;;;;;;12211856;28;20420;-79
2021/05/06 08:30:13;;;;;;;9.43;8.35;;;6.60;99.90;;;;;;12204378;28;20056;-79
2021/05/06 08:36:15;;;;;;;10.48;8.07;;;7.00;99.90;;;;;;12214096;28;20051;-79
2021/05/06 08:42:18;;;;;;;8.10;6.07;;;7.20;99.90;;;;;;12204636;28;20538;-79
2021/05/06 08:48:19;;;;;;;7.25;5.63;;;7.00;99.90;;;;;;12215241;28;20682;-79
2021/05/06 08:54:21;;;;;;;6.05;4.80;;;7.30;99.90;;;;;;12210842;28;20703;-79
2021/05/06 09:00:22;;;;;;;6.03;4.90;;;7.50;99.90;;;;;;12205507;28;20126;-79
2021/05/06 09:06:24;;;;;;;6.72;4.95;;;7.20;99.90;;;;;;12204578;28;20056;-79
2021/05/06 09:12:36;;;;;;;6.40;4.82;;;7.20;99.90;;;;;;12205829;28;20500;-79
2021/05/06 09:18:42;;;;;;;8.23;4.35;;;7.70;99.90;;;;;;12208766;28;20206;-79
2021/05/06 09:24:43;;;;;;;5.65;4.22;;;7.80;99.90;;;;;;12210164;28;20063;-79
2021/05/06 09:30:55;;;;;;;8.25;4.50;;;8.30;99.90;;;;;;12239797;28;20048;-80
2021/05/06 09:36:58;;;;;;;4.82;3.45;;;8.70;99.90;;;;;;12260324;28;20044;-79
2021/05/06 09:42:59;;;;;;;5.68;3.58;;;9.00;99.90;;;;;;12249525;28;20048;-80
2021/05/06 09:49:07;;;;;;;8.23;3.50;;;9.10;99.90;;;;;;12248169;28;20397;-80
2021/05/06 09:55:14;;;;;;;6.38;3.60;;;9.00;99.90;;;;;;12224149;28;20531;-80
2021/05/06 10:01:15;;;;;;;6.95;3.72;;;8.80;99.90;;;;;;12208167;28;20583;-80
2021/05/06 10:07:23;;;;;;;4.88;3.70;;;9.40;99.90;;;;;;12215850;28;20142;-80
2021/05/06 10:13:26;;;;;;;5.97;3.47;;;9.30;99.90;;;;;;12213904;28;20045;-79
2021/05/06 10:19:28;;;;;;;6.57;3.50;;;10.40;99.90;;;;;;12214944;28;20119;-79
2021/05/06 10:25:30;;;;;;;4.38;2.58;;;10.70;99.90;;;;;;12221634;28;20059;-80
2021/05/06 10:31:31;;;;;;;4.97;2.97;;;10.90;99.90;;;;;;12215441;28;20507;-80
2021/05/06 10:37:35;;;;;;;3.05;2.08;;;11.40;99.90;;;;;;12212406;28;20152;-80
2021/05/06 10:43:55;;;;;;;5.45;2.58;;;11.10;99.90;;;;;;12208552;28;20144;-80
2021/05/06 10:50:07;;;;;;;4.78;2.38;;;11.90;99.90;;;;;;12215892;28;20141;-80
2021/05/06 10:56:17;;;;;;;5.97;2.40;;;10.90;99.90;;;;;;12208193;28;20060;-80
2021/05/06 11:02:46;;;;;;;4.05;2.80;;;10.20;99.90;;;;;;12196711;28;20044;-80
2021/05/06 11:08:47;;;;;;;5.75;3.25;;;10.00;99.90;;;;;;12155982;28;20147;-80
2021/05/06 11:15:01;;;;;;;9.80;2.70;;;9.40;99.90;;;;;;12168399;29;20136;-79
2021/05/06 11:21:02;;;;;;;6.75;2.92;;;10.80;99.90;;;;;;12158550;28;20040;-79
2021/05/06 11:33:20;;;;;;;6.65;2.70;;;11.10;99.90;;;;;;12158369;29;20140;-80
2021/05/06 11:39:21;;;;;;;3.25;2.10;;;10.90;99.90;;;;;;12162122;28;20044;-80
2021/05/06 11:45:24;;;;;;;4.20;2.22;;;10.80;99.90;;;;;;12160226;28;20043;-79
2021/05/06 11:51:29;;;;;;;3.72;2.30;;;11.60;99.90;;;;;;12169253;28;20074;-80
2021/05/06 11:57:30;;;;;;;3.65;2.10;;;11.90;99.90;;;;;;12208620;29;20139;-80
2021/05/06 12:03:36;;;;;;;4.82;2.75;;;11.10;99.90;;;;;;12203553;28;20436;-80
2021/05/06 12:09:38;;;;;;;3.53;2.20;;;11.20;99.90;;;;;;12204964;29;20131;-79
2021/05/06 12:15:39;;;;;;;3.88;2.22;;;11.60;99.90;;;;;;12172098;28;20040;-79
2021/05/06 12:21:48;;;;;;;4.38;2.40;;;12.20;99.90;;;;;;12179706;28;20080;-80
2021/05/06 12:27:54;;;;;;;5.13;2.40;;;12.80;99.90;;;;;;12207109;28;20083;-80
2021/05/06 12:33:56;;;;;;;5.47;2.58;;;13.80;99.90;;;;;;12206665;28;20094;-80
2021/05/06 12:39:58;;;;;;;3.42;2.25;;;13.30;99.90;;;;;;12205106;28;20056;-80
2021/05/06 12:46:07;;;;;;;4.80;2.80;;;13.20;99.90;;;;;;12200090;28;20052;-79
2021/05/06 12:52:32;;;;;;;6.07;2.78;;;13.10;99.90;;;;;;12204273;28;20105;-79
2021/05/06 12:58:35;;;;;;;3.00;2.35;;;13.50;99.90;;;;;;12214691;28;20048;-80
2021/05/06 13:04:49;;;;;;;3.63;2.60;;;12.90;99.90;;;;;;12205519;28;20048;-79
2021/05/06 13:11:01;;;;;;;4.97;2.93;;;13.00;99.90;;;;;;12207301;28;20493;-79
2021/05/06 13:17:02;;;;;;;4.10;2.70;;;12.10;99.90;;;;;;12207595;28;20058;-79
2021/05/06 13:23:09;;;;;;;4.32;2.63;;;11.60;99.90;;;;;;12203113;28;20645;-80
2021/05/06 13:29:15;;;;;;;4.70;3.22;;;11.40;99.90;;;;;;12206346;28;20059;-79
2021/05/06 13:35:17;;;;;;;6.15;4.88;;;10.70;99.90;;;;;;12222721;28;20055;-80
2021/05/06 13:41:20;;;;;;;6.68;4.80;;;10.10;99.90;;;;;;12213114;28;20094;-80
2021/05/06 13:47:25;;;;;;;6.18;4.43;;;9.70;99.90;;;;;;12232492;28;20398;-80
2021/05/06 13:53:26;;;;;;;5.25;4.15;;;10.40;99.90;;;;;;12213871;28;20056;-80
2021/05/06 13:59:28;;;;;;;5.60;3.63;;;11.10;99.90;;;;;;12217475;28;20040;-80
2021/05/06 14:05:29;;;;;;;4.75;3.60;;;11.90;99.90;;;;;;12210233;28;20143;-80
2021/05/06 14:11:30;;;;;;;5.70;3.25;;;12.30;99.90;;;;;;12215216;28;20187;-80
2021/05/06 14:17:37;;;;;;;4.45;3.33;;;12.10;99.90;;;;;;12221022;28;20068;-81
2021/05/06 14:23:43;;;;;;;6.82;3.50;;;12.10;99.90;;;;;;12213597;28;20052;-80
2021/05/06 14:29:44;;;;;;;5.25;3.88;;;11.90;99.90;;;;;;12218388;28;20589;-80
2021/05/06 14:35:46;;;;;;;5.28;3.83;;;12.30;99.90;;;;;;12214243;28;20084;-80
2021/05/06 14:41:47;;;;;;;4.38;3.30;;;12.10;99.90;;;;;;12215715;28;20510;-80
2021/05/06 14:47:48;;;;;;;5.10;3.22;;;12.80;99.90;;;;;;12218276;28;20110;-80
2021/05/06 14:53:50;;;;;;;4.95;3.70;;;13.20;99.90;;;;;;12218433;28;20064;-79
2021/05/06 14:59:51;;;;;;;5.70;3.53;;;13.20;99.90;;;;;;12213220;28;20131;-79
2021/05/06 15:05:52;;;;;;;5.00;3.28;;;13.50;99.90;;;;;;12212022;28;20485;-80
2021/05/06 15:11:56;;;;;;;4.28;2.90;;;12.90;99.90;;;;;;12208666;28;20083;-80
2021/05/06 15:17:59;;;;;;;5.20;3.75;;;13.50;99.90;;;;;;12212607;28;20052;-79
2021/05/06 15:24:01;;;;;;;4.47;3.58;;;13.60;99.90;;;;;;12209554;28;20044;-80
2021/05/06 15:30:04;;;;;;;5.53;3.78;;;13.20;99.90;;;;;;12205298;28;20056;-80
2021/05/06 15:36:06;;;;;;;4.40;3.40;;;13.60;99.90;;;;;;12216683;28;20121;-79
2021/05/06 15:42:08;;;;;;;5.72;4.03;;;13.40;99.90;;;;;;12206741;28;20539;-79
2021/05/06 15:48:15;;;;;;;6.00;3.78;;;13.00;99.90;;;;;;12206746;28;20098;-80
2021/05/06 15:54:17;;;;;;;4.47;3.78;;;12.90;99.90;;;;;;12215495;28;20086;-79
2021/05/06 16:00:19;;;;;;;5.80;3.72;;;12.10;99.90;;;;;;12210846;28;20087;-80
2021/05/06 16:06:20;;;;;;;5.95;3.60;;;12.50;99.90;;;;;;12213955;28;20068;-80
2021/05/06 16:12:21;;;;;;;5.00;3.65;;;12.40;99.90;;;;;;12228030;28;20059;-80
2021/05/06 16:18:23;;;;;;;6.78;3.70;;;12.40;99.90;;;;;;12221488;28;20499;-80
2021/05/06 16:24:24;;;;;;;6.30;4.15;;;12.00;99.90;;;;;;12206988;28;20053;-79
2021/05/06 16:30:27;;;;;;;6.75;3.70;;;12.50;99.90;;;;;;12220338;28;20055;-80
2021/05/06 16:42:34;;;;;;;5.68;3.80;;;13.70;99.90;;;;;;12201608;28;20139;-79
2021/05/06 16:48:35;;;;;;;4.50;3.58;;;13.40;99.90;;;;;;12212866;28;20052;-79
2021/05/06 16:54:37;;;;;;;5.32;3.88;;;12.50;99.90;;;;;;12211189;28;20059;-79
2021/05/06 17:00:41;;;;;;;6.60;4.15;;;11.50;99.90;;;;;;12207230;28;20047;-80
2021/05/06 17:06:42;;;;;;;6.20;4.88;;;10.90;99.90;;;;;;12249596;28;20052;-80
2021/05/06 17:12:44;;;;;;;6.60;5.60;;;10.70;99.90;;;;;;12259943;28;20044;-80
2021/05/06 17:18:45;;;;;;;7.90;6.22;;;10.50;99.90;;;;;;12212225;28;20056;-80
2021/05/06 17:24:47;;;;;;;7.72;6.60;;;10.30;99.90;;;;;;12195812;28;20059;-80
2021/05/06 17:30:48;;;;;;;8.18;6.13;;;10.10;99.90;;;;;;12200812;28;20060;-79
2021/05/06 17:36:50;;;;;;;8.15;6.45;;;10.00;99.90;;;;;;12280634;28;20109;-80
2021/05/06 17:42:51;;;;;;;8.07;6.18;;;9.90;99.90;;;;;;12201888;28;20048;-80
2021/05/06 17:48:54;;;;;;;8.38;5.97;;;10.00;99.90;;;;;;12204282;28;20059;-80
2021/05/06 17:54:57;;;;;;;7.82;6.13;;;10.10;99.90;;;;;;12206695;28;20056;-79
2021/05/06 18:00:58;;;;;;;9.10;5.97;;;9.90;99.90;;;;;;12206126;28;20130;-79
2021/05/06 18:07:00;;;;;;;11.52;6.93;;;9.80;99.90;;;;;;12195920;28;20056;-79
2021/05/06 18:13:01;;;;;;;8.93;6.18;;;9.70;99.90;;;;;;12207738;28;20044;-79
2021/05/06 18:19:05;;;;;;;8.05;5.40;;;9.80;99.90;;;;;;12208406;28;20048;-80
2021/05/06 18:25:07;;;;;;;6.43;5.10;;;9.90;99.90;;;;;;12220700;28;20074;-80
2021/05/06 18:31:10;;;;;;;6.28;4.03;;;9.70;99.90;;;;;;12217767;28;20296;-79
2021/05/06 18:37:11;;;;;;;5.45;3.88;;;9.50;99.90;;;;;;12211005;28;20045;-78
2021/05/06 18:43:12;;;;;;;6.60;4.13;;;9.80;99.90;;;;;;12209888;28;20068;-79
2021/05/06 18:49:15;;;;;;;6.72;3.90;;;9.30;99.90;;;;;;12202098;28;20056;-78
2021/05/06 18:55:17;;;;;;;8.52;4.45;;;9.10;99.90;;;;;;12208478;28;20048;-78
2021/05/06 19:01:18;;;;;;;10.70;5.63;;;8.90;99.90;;;;;;12208097;28;20090;-78
2021/05/06 19:07:19;;;;;;;7.95;6.60;;;8.60;99.90;;;;;;12203726;28;20043;-77
2021/05/06 19:13:21;;;;;;;8.57;6.45;;;8.40;99.90;;;;;;12205338;28;20416;-78
2021/05/06 19:19:22;;;;;;;10.90;8.50;;;8.00;99.90;;;;;;12212254;28;20147;-77
2021/05/06 19:25:24;;;;;;;10.32;8.20;;;7.60;99.90;;;;;;12200820;28;20054;-78
2021/05/06 19:31:25;;;;;;;12.75;9.00;;;7.50;99.90;;;;;;12207179;28;20056;-78
2021/05/06 19:37:28;;;;;;;11.40;8.40;;;7.00;99.90;;;;;;12205564;28;20051;-78
2021/05/06 19:43:34;;;;;;;12.40;8.18;;;7.20;99.90;;;;;;12197202;28;20048;-78
2021/05/06 19:49:37;;;;;;;11.55;9.52;;;7.30;99.90;;;;;;12210126;28;20053;-78
2021/05/06 19:55:38;;;;;;;11.60;9.57;;;7.00;99.90;;;;;;12215188;28;20155;-78
2021/05/06 20:01:42;;;;;;;13.23;10.20;;;6.90;99.90;;;;;;12204949;28;20047;-78
2021/05/06 20:07:44;;;;;;;;;;;6.80;99.90;;;;;;12200371;28;20185;-78
2021/05/06 20:13:45;;;;;;;12.25;9.45;;;6.70;99.90;;;;;;12205150;28;20036;-78
2021/05/06 20:19:53;;;;;;;11.23;8.85;;;6.70;99.90;;;;;;12222537;28;20534;-78
2021/05/06 20:25:55;;;;;;;12.02;10.07;;;6.70;99.90;;;;;;12200329;28;20052;-78
2021/05/06 20:31:56;;;;;;;12.07;9.43;;;6.70;99.90;;;;;;12197450;28;20047;-78
2021/05/06 20:37:58;;;;;;;9.98;8.68;;;6.60;99.90;;;;;;12204630;28;20071;-78
2021/05/06 20:44:04;;;;;;;10.25;8.80;;;6.60;99.90;;;;;;12202154;28;20116;-78
2021/05/06 20:50:06;;;;;;;13.13;9.00;;;6.70;99.90;;;;;;12206617;28;20090;-78
2021/05/06 20:56:07;;;;;;;11.77;9.23;;;6.60;99.90;;;;;;12204759;28;20055;-78
2021/05/06 21:02:10;;;;;;;12.68;9.48;;;6.70;99.90;;;;;;12203937;28;20040;-78
2021/05/06 21:08:12;;;;;;;10.20;9.07;;;6.40;99.90;;;;;;12207935;28;20533;-78
2021/05/06 21:14:13;;;;;;;11.27;9.50;;;6.50;99.90;;;;;;12200257;28;20048;-78
2021/05/06 21:20:15;;;;;;;14.32;10.35;;;6.90;99.90;;;;;;12205435;28;20149;-77
2021/05/06 21:26:16;;;;;;;14.02;10.93;;;6.90;99.90;;;;;;12202544;28;20105;-78
2021/05/06 21:32:17;;;;;;;15.35;10.77;;;6.70;99.90;;;;;;12223714;28;20044;-78
2021/05/06 21:38:20;;;;;;;14.23;11.60;;;6.20;99.90;;;;;;12215737;28;20444;-78
2021/05/06 21:44:21;;;;;;;14.30;12.00;;;6.00;99.90;;;;;;12217499;28;20464;-78
2021/05/06 21:50:23;;;;;;;16.92;12.68;;;5.90;99.90;;;;;;12205256;28;20144;-78
2021/05/06 21:56:24;;;;;;;16.33;13.02;;;5.90;99.90;;;;;;12208595;28;20055;-78
2021/05/06 22:02:25;;;;;;;18.95;13.57;;;5.90;99.90;;;;;;12211432;28;20086;-78
2021/05/06 22:08:28;;;;;;;15.70;13.27;;;5.80;99.90;;;;;;12214994;28;20571;-78
2021/05/06 22:14:29;;;;;;;17.05;13.27;;;6.00;99.90;;;;;;12206861;28;20056;-78
2021/05/06 22:20:30;;;;;;;18.50;13.90;;;5.70;99.90;;;;;;12211479;28;20069;-78
2021/05/06 22:26:33;;;;;;;17.08;13.43;;;6.00;99.90;;;;;;12208475;28;20059;-78
2021/05/06 22:32:34;;;;;;;22.80;13.00;;;6.00;99.90;;;;;;12210568;28;20040;-78
2021/05/06 22:38:36;;;;;;;18.85;13.63;;;6.20;99.90;;;;;;12217892;28;20428;-78
2021/05/06 22:44:37;;;;;;;17.17;12.30;;;6.30;99.90;;;;;;12199407;28;20093;-78
2021/05/06 22:50:39;;;;;;;16.63;12.30;;;6.30;99.90;;;;;;12206694;28;20072;-78
2021/05/06 22:56:40;;;;;;;15.25;12.43;;;6.30;99.90;;;;;;12208238;28;20060;-78
2021/05/06 23:02:41;;;;;;;16.40;12.10;;;6.40;99.90;;;;;;12202758;28;20126;-78
2021/05/06 23:08:43;;;;;;;17.23;12.23;;;6.40;99.90;;;;;;12217883;28;20557;-78
2021/05/06 23:14:44;;;;;;;15.48;12.50;;;6.00;99.90;;;;;;12216836;28;20583;-78
2021/05/06 23:20:46;;;;;;;18.65;14.10;;;5.80;99.90;;;;;;12210909;28;20154;-78
2021/05/06 23:26:47;;;;;;;17.65;13.35;;;5.70;99.90;;;;;;12214925;28;20110;-78
2021/05/06 23:32:49;;;;;;;18.02;13.88;;;5.60;99.90;;;;;;12207345;28;20059;-78
2021/05/06 23:38:50;;;;;;;16.77;14.15;;;5.70;99.90;;;;;;12209321;28;20105;-78
2021/05/06 23:44:51;;;;;;;18.55;14.23;;;6.00;99.90;;;;;;12287374;28;20090;-78
2021/05/06 23:50:54;;;;;;;16.70;13.38;;;6.00;99.90;;;;;;12203994;28;20131;-78
2021/05/06 23:56:56;;;;;;;15.45;12.50;;;6.30;99.90;;;;;;12212465;28;21017;-78
